Fort Worth, TX

10:46 PM CDT on Οκτώβριος 31, 2014 (GMT -0500)
BRIT Living Roof | Change Station
CLOSE
Current Station
Personal Weather Stations
Location: Fort Worth, TX
Elevation: 594 ft
Nearby Weather Stations
Active Advisory: Special Statement

Elev 594 ft 32.74 °N, 97.36 °W | Updated 5 minutes ago

Αίθριος
Αίθριος
53.7 ° F
Feels Like 53.7 ° F
N
0.0
Ανεμος Μεταβλητός Ανεμος from ΒΒΔ
Gusts 8.0 mph

Σήμερα
High -- | Low -- ° F
--% Chance of Precip.
Yesterday
High -- | Low -- ° F
Precip. -- in
7:46 AM 6:39 PM
Πρώτο τέταρτο, 62% visible
Ατμοσφαιρική Πίεση 30.35 in
Ορατότητα 10.0 Μίλια
Σύννεφα Αίθριος
Σημείο Δρόσου 40 ° F
Υγρασία 60%
Rainfall 0.00 in
Snow Depth Not available.
Υπεριώδης ακτινοβολία (UV) 0.0 out of 12
Pollen 4.00 out of 12
Air Quality Not available.
Flu Activity Not available.
METAR KFTW 010253Z 35007KT 10SM CLR 12/03 A3035 RMK AO2 SLP275 T01170033 51012

More Conditions Fewer Conditions

Ατμοσφαιρική Πίεση 30.35 in
Ορατότητα 10.0 Μίλια
Σύννεφα Αίθριος
Σημείο Δρόσου 40 ° F
Υγρασία 60%
Rainfall 0.00 in
Snow Depth Not available.
Υπεριώδης ακτινοβολία (UV) 0.0 out of 12
Pollen 4.00 out of 12
Air Quality Not available.
Flu Activity Not available.
METAR KFTW 010253Z 35007KT 10SM CLR 12/03 A3035 RMK AO2 SLP275 T01170033 51012

More Conditions Fewer Conditions

10-Day Weather Forecast

Almanac

Αστρονομία

Oct. 31, 2014 Rise Set
Actual Time
Civil Twilight
Nautical Twilight
Astronomical Twilight
Moon
Length Of Visible Light
Διάρκεια ημέρας
Tomorrow will be .
, % of the Moon is Illuminated

Today's Extremes

State Highs State Lows

Community

WunderPhotos

Upload Photos

1,766,847 photos uploaded!

WunderBlogs® & News

Nearby

Air Quality

  Air Quality AQ Index Pollutant
Not available.

Snow Depth

Station Depth Elevation

Earthquake Activity

City Distance Mag. Time & Date
Minimum magnitude displayed is 2.5.

Coastal Water Temperatures

Τοποθεσία Θερμοκρασία

Nearby Weather Stations